Time;durP1;ratioP1;P1;durP2;ratioP2;P2;SDS_P1;SDS_P2;PMS_P1;PMS_P2;Temp;Humidity;BMP_temperature;BMP_pressure;BME280_temperature;BME280_humidity;BME280_pressure;Samples;Min_cycle;Max_cycle;Signal;HPM_P1;HPM_P2
2022/03/30 00:01:14;;;;;;;17.23;8.32;;;;;;;11.89;42.51;98680.09;4456640;32;34549;-69
2022/03/30 00:04:00;;;;;;;17.12;7.62;;;;;;;12.15;41.31;98676.97;4456373;32;35159;-69
2022/03/30 00:06:46;;;;;;;16.40;8.10;;;;;;;12.08;41.94;98672.06;4476923;32;34032;-70
2022/03/30 00:09:32;;;;;;;16.67;8.02;;;;;;;12.01;41.81;98674.63;4469002;32;34299;-69
2022/03/30 00:12:19;;;;;;;19.27;8.95;;;;;;;12.20;41.06;98678.72;4467454;32;34666;-69
2022/03/30 00:15:05;;;;;;;17.05;8.57;;;;;;;12.15;41.06;98674.25;4465970;32;36219;-70
2022/03/30 00:17:51;;;;;;;18.60;7.70;;;;;;;12.06;41.18;98668.88;4473718;32;35035;-70
2022/03/30 00:20:37;;;;;;;19.85;8.60;;;;;;;12.15;41.01;98676.97;4469953;32;33874;-70
2022/03/30 00:23:25;;;;;;;18.55;9.40;;;;;;;12.24;40.81;98677.69;4467463;32;34647;-70
2022/03/30 00:26:11;;;;;;;16.77;8.80;;;;;;;11.98;41.59;98674.47;4460879;32;34553;-70
2022/03/30 00:28:57;;;;;;;18.20;8.48;;;;;;;12.29;41.51;98660.16;4449506;32;34492;-69
2022/03/30 00:31:44;;;;;;;19.55;8.63;;;;;;;12.17;41.26;98662.91;4463663;32;34209;-69
2022/03/30 00:34:30;;;;;;;18.65;8.82;;;;;;;12.07;41.11;98659.50;4478813;32;34586;-70
2022/03/30 00:37:16;;;;;;;17.70;8.52;;;;;;;12.23;41.28;98661.53;4463664;32;35824;-69
2022/03/30 00:40:04;;;;;;;14.57;8.55;;;;;;;12.24;40.38;98652.13;4465760;32;35508;-70
2022/03/30 00:42:51;;;;;;;18.08;8.85;;;;;;;12.49;39.79;98650.16;4464175;32;33743;-70
2022/03/30 00:45:37;;;;;;;15.63;8.73;;;;;;;12.24;40.18;98644.72;4464185;32;34999;-70
2022/03/30 00:48:23;;;;;;;14.43;8.05;;;;;;;12.08;40.58;98644.63;4461758;32;35968;-70
2022/03/30 00:51:10;;;;;;;18.33;9.15;;;;;;;12.25;40.13;98642.78;4474816;32;34292;-70
2022/03/30 00:53:56;;;;;;;21.33;9.32;;;;;;;10.90;43.74;98645.34;4465619;32;33744;-71
2022/03/30 00:56:43;;;;;;;18.42;8.73;;;;;;;10.34;45.04;98645.69;4460212;32;34707;-70
2022/03/30 00:59:30;;;;;;;15.32;8.68;;;;;;;10.84;43.26;98641.22;4463456;32;34837;-70
2022/03/30 01:02:17;;;;;;;17.90;8.27;;;;;;;11.00;43.29;98639.47;4468906;32;33976;-71
2022/03/30 01:05:04;;;;;;;16.45;8.65;;;;;;;11.37;42.51;98636.81;4481533;32;34808;-70
2022/03/30 01:07:50;;;;;;;16.30;8.35;;;;;;;11.51;42.08;98641.97;4454391;32;34592;-70
2022/03/30 01:10:37;;;;;;;17.02;8.40;;;;;;;11.49;42.35;98636.81;4468768;32;36012;-71
2022/03/30 01:13:24;;;;;;;19.42;8.80;;;;;;;11.78;41.51;98635.00;4465708;32;34588;-71
2022/03/30 01:16:10;;;;;;;17.95;8.57;;;;;;;12.26;40.49;98636.13;4453871;32;33745;-71
2022/03/30 01:19:09;;;;;;;17.90;8.32;;;;;;;12.16;41.00;98634.66;4453215;32;34707;-70
2022/03/30 01:21:56;;;;;;;14.70;8.48;;;;;;;12.01;41.00;98638.09;4475709;32;34557;-71
2022/03/30 01:24:42;;;;;;;17.70;8.90;;;;;;;11.84;41.92;98628.13;4467091;32;34528;-70
2022/03/30 01:27:29;;;;;;;14.98;8.27;;;;;;;12.07;41.43;98625.75;4460715;32;34154;-70
2022/03/30 01:33:21;;;;;;;15.38;8.07;;;;;;;12.72;39.71;98614.69;4463209;32;35560;-71
2022/03/30 01:36:07;;;;;;;14.77;7.78;;;;;;;12.01;41.11;98611.47;4465728;32;35197;-71
2022/03/30 01:38:53;;;;;;;17.20;8.18;;;;;;;12.55;40.29;98619.34;4455805;32;33857;-70
2022/03/30 01:41:39;;;;;;;13.48;8.02;;;;;;;12.83;39.68;98608.34;4469823;32;34407;-70
2022/03/30 01:44:26;;;;;;;24.25;9.07;;;;;;;12.97;39.32;98607.13;4465902;32;35636;-70
2022/03/30 01:47:12;;;;;;;14.98;7.70;;;;;;;12.92;39.64;98599.94;4462364;32;35234;-70
2022/03/30 01:49:59;;;;;;;16.92;8.23;;;;;;;12.78;39.76;98607.81;4474154;32;34147;-71
2022/03/30 01:52:46;;;;;;;15.07;8.77;;;;;;;12.72;39.89;98601.78;4457852;32;34551;-70
2022/03/30 01:55:32;;;;;;;16.48;8.55;;;;;;;12.48;40.73;98597.16;4468942;32;35634;-70
2022/03/30 01:58:18;;;;;;;19.77;8.60;;;;;;;11.53;42.75;98607.56;4455512;32;34507;-70
2022/03/30 02:01:05;;;;;;;14.75;7.90;;;;;;;12.12;41.53;98596.13;4467825;32;34207;-70
2022/03/30 02:03:52;;;;;;;16.05;7.95;;;;;;;11.33;43.59;98594.75;4468705;32;34583;-71
2022/03/30 02:06:38;;;;;;;15.77;7.68;;;;;;;11.55;43.44;98594.28;4465005;32;36622;-70
2022/03/30 02:09:25;;;;;;;12.50;8.05;;;;;;;12.04;42.58;98588.81;4459506;32;35199;-70
2022/03/30 02:12:11;;;;;;;15.75;7.50;;;;;;;11.97;42.47;98580.34;4467054;32;34459;-70
2022/03/30 02:14:58;;;;;;;18.23;8.35;;;;;;;11.81;43.26;98579.41;4459525;32;34595;-70
2022/03/30 02:17:45;;;;;;;16.00;7.87;;;;;;;11.48;43.90;98574.88;4467418;32;36021;-71
2022/03/30 02:20:31;;;;;;;15.90;8.02;;;;;;;11.99;42.56;98586.31;4466624;32;35122;-71
2022/03/30 02:23:17;;;;;;;14.93;7.75;;;;;;;11.92;42.41;98580.56;4473183;32;35128;-70
2022/03/30 02:26:04;;;;;;;14.70;7.80;;;;;;;10.88;45.29;98598.31;4469343;32;34680;-70
2022/03/30 02:28:54;;;;;;;14.40;8.20;;;;;;;10.06;48.23;98587.88;4468550;32;34988;-70
2022/03/30 02:31:41;;;;;;;18.62;8.50;;;;;;;10.21;48.37;98598.22;4463764;32;34638;-70
2022/03/30 02:34:28;;;;;;;15.75;6.82;;;;;;;9.71;49.36;98601.78;4454473;32;35197;-71
2022/03/30 02:37:15;;;;;;;14.02;7.95;;;;;;;9.19;51.12;98602.00;4466432;32;35502;-70
2022/03/30 02:40:03;;;;;;;15.30;7.43;;;;;;;8.68;53.23;98603.72;4457057;32;34470;-70
2022/03/30 02:42:49;;;;;;;16.62;7.25;;;;;;;8.96;52.91;98602.22;4466778;32;34683;-70
2022/03/30 02:45:35;;;;;;;12.00;7.28;;;;;;;9.34;52.27;98603.41;4456932;32;35218;-70
2022/03/30 02:48:28;;;;;;;15.30;7.22;;;;;;;10.09;50.06;98595.41;4474012;32;34204;-70
2022/03/30 02:51:14;;;;;;;18.27;7.80;;;;;;;10.21;49.49;98592.75;4480750;32;35947;-70
2022/03/30 02:54:00;;;;;;;13.32;6.90;;;;;;;8.99;53.23;98598.03;4472616;32;34580;-70
2022/03/30 02:56:47;;;;;;;17.05;8.85;;;;;;;9.22;52.03;98599.44;4473413;32;35114;-70
2022/03/30 02:59:34;;;;;;;15.50;8.32;;;;;;;8.65;53.48;98605.19;4461157;32;34218;-70
2022/03/30 03:02:20;;;;;;;12.98;7.20;;;;;;;9.12;52.41;98602.50;4475400;32;35929;-70
2022/03/30 03:05:07;;;;;;;18.83;8.40;;;;;;;9.89;50.19;98597.81;4475101;32;35064;-70
2022/03/30 03:07:53;;;;;;;13.82;6.72;;;;;;;10.10;50.08;98592.38;4477959;32;34462;-70
2022/03/30 03:10:41;;;;;;;14.75;7.47;;;;;;;8.97;53.50;98594.84;4468792;32;35629;-70
2022/03/30 03:13:28;;;;;;;16.77;7.37;;;;;;;9.28;52.08;98594.59;4455037;32;34992;-70
2022/03/30 03:16:13;;;;;;;13.57;7.45;;;;;;;10.00;50.11;98594.69;4465435;32;35478;-70
2022/03/30 03:19:00;;;;;;;18.67;7.70;;;;;;;9.28;51.97;98604.69;4453200;32;33842;-70
2022/03/30 03:21:46;;;;;;;15.68;7.93;;;;;;;9.24;51.88;98610.03;4462390;32;35552;-70
2022/03/30 03:24:33;;;;;;;13.15;7.55;;;;;;;9.86;50.22;98603.94;4470523;32;35619;-69
2022/03/30 03:27:19;;;;;;;13.73;7.62;;;;;;;8.83;52.77;98608.69;4466982;32;34501;-70
2022/03/30 03:30:06;;;;;;;17.67;7.53;;;;;;;9.59;50.78;98601.66;4463721;32;35143;-70
2022/03/30 03:32:53;;;;;;;14.80;7.22;;;;;;;8.54;53.35;98599.25;4470086;32;36101;-70
2022/03/30 03:35:39;;;;;;;12.48;6.80;;;;;;;8.58;53.71;98601.34;4450330;32;34890;-70
2022/03/30 03:38:26;;;;;;;13.07;7.82;;;;;;;9.59;50.81;98590.72;4467564;32;34229;-70
2022/03/30 03:41:12;;;;;;;15.73;8.13;;;;;;;9.81;49.74;98590.44;4469744;32;35048;-70
2022/03/30 03:43:58;;;;;;;13.45;7.32;;;;;;;10.17;48.57;98586.34;4468220;32;34558;-70
2022/03/30 03:46:45;;;;;;;18.27;7.72;;;;;;;10.32;47.98;98588.50;4458719;32;34714;-71
2022/03/30 03:49:31;;;;;;;14.38;7.85;;;;;;;10.39;47.73;98592.63;4465088;32;34098;-71
2022/03/30 03:52:17;;;;;;;15.50;7.65;;;;;;;9.67;49.99;98587.16;4452527;32;34105;-70
2022/03/30 03:55:04;;;;;;;15.35;7.57;;;;;;;8.51;53.71;98591.72;4471341;32;33385;-71
2022/03/30 03:57:50;;;;;;;16.65;7.90;;;;;;;9.33;51.21;98586.19;4458933;32;35901;-71
2022/03/30 04:00:36;;;;;;;14.23;7.70;;;;;;;9.55;50.59;98585.13;4464312;32;34972;-71
2022/03/30 04:03:23;;;;;;;15.95;7.82;;;;;;;8.41;53.54;98594.78;4474154;32;35142;-71
2022/03/30 04:06:09;;;;;;;16.02;7.43;;;;;;;9.44;50.98;98586.62;4465313;32;35519;-71
2022/03/30 04:08:56;;;;;;;13.45;7.68;;;;;;;9.91;49.50;98576.37;4454030;32;36015;-71
2022/03/30 04:11:42;;;;;;;22.10;8.48;;;;;;;10.09;48.77;98568.84;4470010;32;35434;-71
2022/03/30 04:14:28;;;;;;;14.52;7.93;;;;;;;7.75;55.86;98574.97;4468904;32;34177;-71
2022/03/30 04:17:15;;;;;;;18.33;7.78;;;;;;;8.38;54.11;98573.53;4472693;32;35559;-71
2022/03/30 04:20:01;;;;;;;20.33;8.10;;;;;;;8.58;53.59;98577.56;4457762;32;34475;-71
2022/03/30 04:22:47;;;;;;;13.68;7.18;;;;;;;8.29;54.80;98586.41;4465715;32;34551;-71
2022/03/30 04:25:34;;;;;;;16.40;8.35;;;;;;;9.06;52.03;98578.44;4473097;31;35168;-71
2022/03/30 04:28:20;;;;;;;15.65;7.68;;;;;;;8.38;54.16;98580.94;4465264;32;34336;-71
2022/03/30 04:31:07;;;;;;;15.23;7.47;;;;;;;8.77;52.68;98586.22;4460202;32;35574;-70
2022/03/30 04:33:54;;;;;;;18.85;7.55;;;;;;;8.74;52.84;98591.53;4463481;32;35692;-71
2022/03/30 04:36:40;;;;;;;15.27;8.18;;;;;;;8.96;51.99;98588.56;4457461;32;35056;-71
2022/03/30 04:39:27;;;;;;;15.05;7.75;;;;;;;9.15;51.21;98590.13;4473657;32;34164;-71
2022/03/30 04:42:14;;;;;;;16.17;8.32;;;;;;;8.75;52.15;98593.13;4463608;32;34606;-71
2022/03/30 04:45:00;;;;;;;16.35;8.57;;;;;;;9.06;51.52;98594.81;4461771;32;34466;-72
2022/03/30 04:47:48;;;;;;;20.27;9.65;;;;;;;8.89;52.12;98595.69;4455570;32;32892;-70
2022/03/30 04:50:35;;;;;;;14.32;8.13;;;;;;;8.31;53.89;98595.06;4440194;32;34609;-72
2022/03/30 04:53:21;;;;;;;14.75;7.78;;;;;;;9.09;52.23;98600.44;4469285;32;34563;-73
2022/03/30 04:56:07;;;;;;;20.75;9.05;;;;;;;9.17;51.94;98593.34;4465294;32;35456;-73
2022/03/30 04:58:53;;;;;;;16.58;9.52;;;;;;;9.28;51.75;98591.84;4467008;32;34166;-73
2022/03/30 05:01:40;;;;;;;19.08;8.00;;;;;;;9.41;51.65;98599.03;4466077;32;34468;-72
2022/03/30 05:04:26;;;;;;;16.40;8.27;;;;;;;9.43;51.82;98604.97;4475422;32;34482;-73
2022/03/30 05:07:14;;;;;;;18.20;8.70;;;;;;;9.26;52.61;98613.25;4470017;32;34638;-72
2022/03/30 05:10:00;;;;;;;26.65;8.85;;;;;;;9.15;53.10;98606.53;4455318;32;34029;-72
2022/03/30 05:12:46;;;;;;;19.83;8.73;;;;;;;8.09;56.17;98610.47;4465557;32;34137;-73
2022/03/30 05:15:33;;;;;;;18.33;8.80;;;;;;;9.23;53.62;98616.63;4468404;32;34708;-73
2022/03/30 05:18:19;;;;;;;18.33;8.07;;;;;;;9.48;52.88;98627.78;4453401;32;34572;-73
2022/03/30 05:21:05;;;;;;;19.25;8.10;;;;;;;9.46;52.67;98622.66;4474738;32;33261;-72
2022/03/30 05:23:52;;;;;;;17.52;8.57;;;;;;;9.36;53.30;98629.28;4451591;32;33501;-73
2022/03/30 05:26:38;;;;;;;18.95;8.52;;;;;;;9.48;53.44;98625.03;4467313;32;34936;-73
2022/03/30 05:29:24;;;;;;;20.95;9.35;;;;;;;9.00;54.73;98633.25;4459361;32;34621;-73
2022/03/30 05:32:11;;;;;;;20.12;9.00;;;;;;;9.44;53.65;98627.63;4473471;32;34788;-73
2022/03/30 05:34:59;;;;;;;16.52;8.35;;;;;;;9.93;52.35;98622.56;4461171;32;34312;-73
2022/03/30 05:37:47;;;;;;;18.00;7.72;;;;;;;10.00;51.96;98631.06;4458015;32;34962;-73
2022/03/30 05:40:33;;;;;;;23.60;9.15;;;;;;;10.09;51.81;98628.25;4443662;32;34189;-73
2022/03/30 05:43:21;;;;;;;19.77;8.50;;;;;;;9.85;53.34;98628.91;4468341;32;34212;-73
2022/03/30 05:46:07;;;;;;;17.77;9.20;;;;;;;10.21;51.91;98620.13;4474027;32;34418;-73
2022/03/30 05:48:54;;;;;;;18.33;8.93;;;;;;;10.20;51.68;98618.53;4444993;32;33932;-73
2022/03/30 05:51:40;;;;;;;19.55;9.75;;;;;;;10.15;52.29;98621.44;4455458;32;35347;-72
2022/03/30 05:54:26;;;;;;;20.30;8.77;;;;;;;10.37;51.38;98620.38;4460094;32;34683;-72
2022/03/30 05:57:13;;;;;;;17.98;8.35;;;;;;;10.42;50.65;98613.91;4455324;32;34672;-72
2022/03/30 05:59:59;;;;;;;20.12;9.02;;;;;;;10.52;50.81;98624.44;4441947;32;34918;-73
2022/03/30 06:02:45;;;;;;;19.62;8.27;;;;;;;9.91;52.33;98622.09;4471032;32;34659;-72
2022/03/30 06:05:32;;;;;;;24.20;8.85;;;;;;;9.62;52.57;98631.09;4456601;32;34178;-72
2022/03/30 06:08:18;;;;;;;16.30;8.00;;;;;;;9.25;54.35;98633.50;4464911;32;34522;-72
2022/03/30 06:11:05;;;;;;;16.15;8.30;;;;;;;8.55;56.44;98628.16;4457629;32;35237;-73
2022/03/30 06:13:52;;;;;;;23.50;8.18;;;;;;;9.84;54.05;98627.28;4466729;32;34654;-73
2022/03/30 06:16:38;;;;;;;16.37;8.40;;;;;;;10.14;52.08;98622.59;4456010;32;35035;-72
2022/03/30 06:19:24;;;;;;;21.50;9.38;;;;;;;10.01;52.98;98620.91;4457974;32;34185;-72
2022/03/30 06:22:12;;;;;;;25.00;9.27;;;;;;;9.14;54.79;98626.78;4462839;32;35578;-72
2022/03/30 06:24:59;;;;;;;19.27;9.02;;;;;;;9.27;55.39;98627.72;4463950;32;35513;-72
2022/03/30 06:27:46;;;;;;;21.70;8.40;;;;;;;9.87;54.01;98627.41;4454188;32;33038;-72
2022/03/30 06:30:32;;;;;;;17.75;8.60;;;;;;;9.03;55.55;98636.47;4453296;32;34552;-73
2022/03/30 06:33:18;;;;;;;16.73;8.05;;;;;;;9.26;55.94;98629.66;4472237;32;35049;-72
2022/03/30 06:36:05;;;;;;;18.40;8.98;;;;;;;9.19;56.36;98626.59;4469897;32;34539;-72
2022/03/30 06:38:51;;;;;;;20.05;8.45;;;;;;;9.53;55.10;98627.59;4475712;32;34751;-72
2022/03/30 06:41:39;;;;;;;17.83;8.55;;;;;;;10.10;52.61;98627.13;4466673;32;34667;-72
2022/03/30 06:44:26;;;;;;;16.70;8.93;;;;;;;10.15;52.98;98640.62;4444706;32;34587;-72
2022/03/30 06:47:12;;;;;;;17.87;9.05;;;;;;;10.46;52.20;98643.00;4443912;32;34474;-73
2022/03/30 06:49:59;;;;;;;17.33;8.27;;;;;;;10.49;52.33;98634.09;4454403;32;34215;-72
2022/03/30 06:52:49;;;;;;;20.08;9.73;;;;;;;10.61;51.34;98633.38;4465595;32;34548;-72
2022/03/30 06:55:37;;;;;;;16.75;9.27;;;;;;;10.56;51.81;98628.91;4454181;32;36588;-73
2022/03/30 06:58:23;;;;;;;18.40;9.25;;;;;;;10.77;50.89;98636.31;4466222;32;35464;-72
2022/03/30 07:01:12;;;;;;;19.52;9.27;;;;;;;11.41;49.67;98637.72;4456035;32;33900;-72
2022/03/30 07:03:58;;;;;;;40.65;15.43;;;;;;;11.09;50.24;98637.44;4465304;32;35707;-72
2022/03/30 07:12:55;;;;;;;18.58;9.10;;;;;;;11.75;48.50;98630.19;4469603;32;34320;-73
2022/03/30 07:15:41;;;;;;;20.58;10.80;;;;;;;11.78;48.09;98632.25;4475652;32;35323;-73
2022/03/30 07:18:27;;;;;;;19.05;9.80;;;;;;;11.56;49.14;98634.31;4462535;32;33923;-72
2022/03/30 07:21:14;;;;;;;17.75;9.18;;;;;;;11.62;47.98;98632.16;4480545;32;34629;-73
2022/03/30 07:24:00;;;;;;;20.90;9.80;;;;;;;11.79;46.64;98637.41;4478568;32;33895;-73
2022/03/30 07:26:47;;;;;;;23.60;9.88;;;;;;;12.26;45.98;98634.19;4462951;32;34729;-72
2022/03/30 07:29:33;;;;;;;20.77;10.00;;;;;;;11.92;46.04;98635.47;4462557;32;34715;-73
2022/03/30 07:32:19;;;;;;;19.83;10.15;;;;;;;12.60;44.95;98624.56;4477234;32;35459;-73
2022/03/30 07:35:10;;;;;;;21.02;11.02;;;;;;;13.15;43.82;98626.84;4455281;32;33770;-73
2022/03/30 07:37:57;;;;;;;22.15;10.98;;;;;;;13.03;43.17;98623.03;4464427;32;35625;-73
2022/03/30 07:40:48;;;;;;;19.95;11.93;;;;;;;12.80;43.86;98620.03;4479885;32;34639;-73
2022/03/30 07:43:34;;;;;;;23.53;11.40;;;;;;;12.45;44.39;98613.53;4478756;32;34521;-73
2022/03/30 07:46:20;;;;;;;22.35;11.38;;;;;;;12.81;43.25;98615.34;4460736;32;33841;-73
2022/03/30 07:49:07;;;;;;;21.73;11.45;;;;;;;13.30;41.44;98615.09;4474442;32;34522;-72
2022/03/30 07:51:53;;;;;;;20.62;10.18;;;;;;;13.48;41.75;98607.28;4463314;32;34539;-73
2022/03/30 07:54:41;;;;;;;22.15;10.88;;;;;;;13.60;41.43;98622.91;4474888;32;35191;-73
2022/03/30 07:57:27;;;;;;;20.88;10.50;;;;;;;13.91;41.01;98622.09;4474645;32;33053;-73
2022/03/30 08:00:16;;;;;;;21.67;11.40;;;;;;;13.84;41.03;98621.94;4465185;32;35503;-73
2022/03/30 08:03:03;;;;;;;21.65;11.45;;;;;;;13.96;40.62;98624.56;4467372;32;35024;-73
2022/03/30 08:05:50;;;;;;;23.02;11.40;;;;;;;13.75;39.66;98624.88;4454329;32;35392;-73
2022/03/30 08:08:37;;;;;;;27.27;12.60;;;;;;;14.55;39.34;98623.53;4460896;32;34215;-73
2022/03/30 08:11:23;;;;;;;21.02;11.27;;;;;;;13.85;40.19;98624.31;4465833;32;34283;-73
2022/03/30 08:14:11;;;;;;;22.45;11.50;;;;;;;13.79;40.99;98627.72;4479213;32;36067;-72
2022/03/30 08:16:57;;;;;;;23.77;11.30;;;;;;;14.00;40.64;98630.94;4454664;32;33452;-73
2022/03/30 08:19:43;;;;;;;22.83;11.93;;;;;;;13.92;40.20;98630.00;4465849;32;34880;-73
2022/03/30 08:22:30;;;;;;;25.35;11.90;;;;;;;13.87;40.31;98633.03;4466316;32;34684;-73
2022/03/30 08:25:17;;;;;;;22.25;11.23;;;;;;;14.50;38.58;98631.28;4466764;32;34837;-73
2022/03/30 08:28:04;;;;;;;21.60;12.02;;;;;;;15.38;37.90;98636.94;4477349;32;34245;-73
2022/03/30 08:30:50;;;;;;;22.10;10.80;;;;;;;15.21;37.77;98632.69;4466991;32;34234;-73
2022/03/30 08:33:37;;;;;;;22.60;10.68;;;;;;;15.75;37.20;98639.19;4481876;32;34593;-73
2022/03/30 08:36:23;;;;;;;23.42;11.10;;;;;;;16.49;35.47;98633.16;4481444;32;34925;-73
2022/03/30 08:39:12;;;;;;;22.73;11.80;;;;;;;15.34;37.08;98635.28;4455656;32;35904;-73
2022/03/30 08:41:59;;;;;;;24.20;11.25;;;;;;;14.80;38.62;98631.53;4478636;32;34142;-73
2022/03/30 08:44:46;;;;;;;22.58;11.30;;;;;;;15.92;37.45;98626.81;4444232;32;35226;-73
2022/03/30 08:47:34;;;;;;;21.85;10.77;;;;;;;16.36;36.38;98640.91;4469377;32;36032;-73
2022/03/30 08:50:21;;;;;;;24.80;10.82;;;;;;;16.77;37.38;98638.28;4475436;32;35399;-73
2022/03/30 08:53:08;;;;;;;25.90;11.27;;;;;;;16.80;37.46;98636.75;4466563;32;34179;-73
2022/03/30 08:55:54;;;;;;;20.00;10.98;;;;;;;16.14;38.98;98642.56;4468381;32;35496;-72
2022/03/30 08:58:41;;;;;;;20.52;10.63;;;;;;;16.11;39.16;98646.06;4463751;32;34557;-71
2022/03/30 09:01:32;;;;;;;21.67;10.90;;;;;;;16.17;39.00;98639.03;4453201;32;35406;-73
2022/03/30 09:04:19;;;;;;;28.53;10.97;;;;;;;15.87;39.27;98638.19;4453477;32;34153;-73
2022/03/30 09:07:05;;;;;;;25.17;10.82;;;;;;;15.93;39.91;98637.50;4481429;32;36600;-73
2022/03/30 09:09:52;;;;;;;21.92;11.12;;;;;;;16.06;39.14;98621.50;4458868;32;34979;-73
2022/03/30 09:12:38;;;;;;;23.10;10.13;;;;;;;16.70;38.31;98627.09;4474890;32;34518;-73
2022/03/30 09:15:25;;;;;;;22.83;10.75;;;;;;;16.21;39.97;98630.00;4467139;32;35117;-73
2022/03/30 09:18:16;;;;;;;21.60;10.98;;;;;;;16.75;39.45;98621.25;4460336;32;34654;-73
2022/03/30 09:21:02;;;;;;;23.90;10.65;;;;;;;16.89;38.13;98628.16;4453950;32;35089;-73
2022/03/30 09:23:49;;;;;;;23.17;11.55;;;;;;;16.92;38.74;98627.41;4475841;32;35372;-72
2022/03/30 09:26:36;;;;;;;24.27;10.55;;;;;;;16.64;38.46;98621.09;4471590;32;34543;-73
2022/03/30 09:29:24;;;;;;;24.25;12.23;;;;;;;16.70;38.23;98629.06;4442413;32;34561;-73
2022/03/30 09:32:30;;;;;;;21.75;10.68;;;;;;;16.68;38.38;98626.69;4480557;32;34711;-74
2022/03/30 09:35:24;;;;;;;32.60;11.50;;;;;;;16.59;38.57;98620.63;4465210;32;33799;-73
2022/03/30 09:38:12;;;;;;;19.85;10.82;;;;;;;16.70;39.76;98631.84;4465693;32;33328;-73
2022/03/30 09:41:03;;;;;;;31.67;12.43;;;;;;;16.15;40.47;98629.53;4467944;32;34779;-73
2022/03/30 09:44:01;;;;;;;21.75;10.98;;;;;;;16.33;40.14;98624.25;4465648;32;34944;-72
2022/03/30 09:46:55;;;;;;;22.67;11.40;;;;;;;16.11;40.69;98618.44;4455174;32;33627;-72
2022/03/30 09:49:41;;;;;;;20.65;10.32;;;;;;;16.40;40.36;98625.16;4475854;32;33870;-73
2022/03/30 09:52:29;;;;;;;22.92;11.60;;;;;;;16.05;41.87;98614.41;4453672;32;35521;-73
2022/03/30 09:55:15;;;;;;;25.65;11.30;;;;;;;16.08;40.42;98613.66;4433696;32;35041;-72
2022/03/30 09:58:06;;;;;;;19.12;10.25;;;;;;;15.96;41.07;98616.63;4461784;32;34200;-73
2022/03/30 10:01:12;;;;;;;21.52;10.52;;;;;;;16.32;40.72;98606.87;4468642;32;35087;-73
2022/03/30 10:04:00;;;;;;;21.87;10.63;;;;;;;16.27;40.02;98604.44;4460540;32;35615;-73
2022/03/30 10:06:46;;;;;;;21.10;10.93;;;;;;;15.88;41.33;98603.84;4468679;32;35680;-72
2022/03/30 10:09:32;;;;;;;18.30;10.77;;;;;;;16.20;40.45;98601.59;4464750;32;34577;-72
2022/03/30 10:12:19;;;;;;;21.52;11.23;;;;;;;16.11;41.30;98601.84;4462798;32;35017;-73
2022/03/30 10:15:08;;;;;;;21.85;11.00;;;;;;;16.44;40.26;98600.31;4472246;32;34251;-72
2022/03/30 10:17:54;;;;;;;23.00;10.93;;;;;;;16.33;40.78;98596.59;4468435;32;34922;-72
2022/03/30 10:20:41;;;;;;;19.80;10.27;;;;;;;16.42;40.62;98594.34;4481080;32;34242;-73
2022/03/30 10:23:39;;;;;;;19.52;10.02;;;;;;;15.79;42.19;98593.06;4468967;32;33848;-72
2022/03/30 10:26:50;;;;;;;21.17;9.73;;;;;;;15.83;42.67;98590.37;4468827;32;34235;-73
2022/03/30 10:29:37;;;;;;;21.05;9.95;;;;;;;16.56;41.30;98591.78;4450664;32;34453;-73
2022/03/30 10:32:24;;;;;;;19.00;10.13;;;;;;;16.36;40.82;98582.03;4447123;32;35422;-72
2022/03/30 10:35:12;;;;;;;18.37;9.23;;;;;;;16.25;41.44;98572.81;4450411;32;33826;-72
2022/03/30 10:37:59;;;;;;;19.27;9.68;;;;;;;16.12;41.95;98575.81;4453325;32;35625;-73
2022/03/30 10:40:47;;;;;;;21.23;10.63;;;;;;;16.42;41.39;98572.22;4456473;32;34898;-72
2022/03/30 10:43:34;;;;;;;19.35;10.02;;;;;;;16.55;40.97;98572.81;4466483;32;35528;-73
2022/03/30 10:46:36;;;;;;;19.48;9.80;;;;;;;16.64;40.71;98567.75;4456651;32;34836;-72
2022/03/30 10:49:39;;;;;;;16.60;9.13;;;;;;;16.62;39.57;98570.09;4453521;32;34680;-73
2022/03/30 10:52:34;;;;;;;18.83;8.80;;;;;;;15.66;41.49;98573.13;4464048;32;35042;-73
2022/03/30 10:55:29;;;;;;;14.32;8.32;;;;;;;16.31;40.33;98557.50;4465325;32;34620;-73
2022/03/30 10:58:16;;;;;;;21.65;9.52;;;;;;;16.86;39.17;98557.78;4479716;32;33167;-73
2022/03/30 11:01:25;;;;;;;17.42;8.63;;;;;;;16.04;39.84;98554.78;4458821;32;35549;-73
2022/03/30 11:04:18;;;;;;;16.58;8.40;;;;;;;16.77;39.75;98551.75;4468273;32;34972;-73
2022/03/30 11:07:12;;;;;;;16.00;8.65;;;;;;;16.81;40.09;98552.56;4473902;32;34567;-72
2022/03/30 11:10:31;;;;;;;19.10;8.73;;;;;;;16.67;40.66;98544.09;4468808;32;34185;-72
2022/03/30 11:13:25;;;;;;;17.12;8.98;;;;;;;16.65;40.90;98544.50;4456317;32;35596;-72
2022/03/30 11:16:13;;;;;;;18.35;9.02;;;;;;;16.21;41.29;98538.81;4452293;32;35078;-72
2022/03/30 11:19:02;;;;;;;20.12;8.63;;;;;;;16.58;40.67;98531.34;4471801;32;35398;-72
2022/03/30 11:21:54;;;;;;;21.10;8.95;;;;;;;16.91;39.95;98538.06;4466768;32;34155;-72
2022/03/30 11:24:43;;;;;;;17.35;9.15;;;;;;;16.93;40.20;98537.69;4444415;32;35208;-73
2022/03/30 11:27:29;;;;;;;17.80;8.88;;;;;;;16.66;40.61;98529.47;4468330;32;34950;-72
2022/03/30 11:30:17;;;;;;;15.30;9.13;;;;;;;16.89;40.19;98523.81;4459053;32;34709;-73
2022/03/30 11:33:17;;;;;;;15.40;8.55;;;;;;;16.30;40.51;98528.25;4457535;32;34956;-73
2022/03/30 11:36:04;;;;;;;15.77;9.25;;;;;;;16.50;40.32;98521.38;4475601;32;35588;-73
2022/03/30 11:38:52;;;;;;;15.93;9.13;;;;;;;15.66;41.99;98520.66;4472907;32;34610;-72
2022/03/30 11:41:53;;;;;;;16.75;9.32;;;;;;;16.25;40.27;98506.47;4451753;32;34068;-73
2022/03/30 11:47:58;;;;;;;16.48;8.48;;;;;;;16.32;40.05;98501.84;4473858;32;34632;-72
2022/03/30 11:50:47;;;;;;;19.25;9.30;;;;;;;16.39;39.52;98501.13;4465847;32;35920;-73
2022/03/30 11:53:35;;;;;;;14.45;8.70;;;;;;;16.10;40.13;98491.69;4454047;32;34081;-73
2022/03/30 11:56:21;;;;;;;18.12;8.85;;;;;;;16.51;40.04;98498.13;4478084;32;33861;-73
2022/03/30 11:59:09;;;;;;;17.52;9.40;;;;;;;16.19;40.99;98495.78;4455825;32;34262;-72
2022/03/30 12:02:01;;;;;;;19.00;8.80;;;;;;;16.57;39.56;98496.59;4469079;32;35067;-73
2022/03/30 12:04:47;;;;;;;17.85;8.75;;;;;;;16.04;40.77;98485.69;4449626;32;35394;-73
2022/03/30 12:07:36;;;;;;;16.15;9.07;;;;;;;15.40;42.41;98484.78;4464529;32;34099;-73
2022/03/30 12:10:31;;;;;;;15.30;8.20;;;;;;;16.39;40.30;98479.81;4476846;32;33621;-72
2022/03/30 12:13:24;;;;;;;17.35;9.18;;;;;;;16.49;39.36;98483.06;4470685;32;35945;-73
2022/03/30 12:16:14;;;;;;;16.55;9.10;;;;;;;16.69;39.32;98475.38;4450039;32;35178;-72
2022/03/30 12:19:00;;;;;;;17.23;8.90;;;;;;;16.48;39.31;98476.75;4467534;32;34759;-72
2022/03/30 12:21:47;;;;;;;18.87;9.18;;;;;;;16.21;39.80;98473.28;4474264;32;34663;-73
2022/03/30 12:24:34;;;;;;;18.67;9.23;;;;;;;16.11;40.75;98469.22;4459015;32;35923;-73
2022/03/30 12:27:21;;;;;;;19.08;10.48;;;;;;;16.11;41.27;98462.91;4457514;32;35065;-72
2022/03/30 12:30:07;;;;;;;22.17;10.90;;;;;;;16.08;40.74;98458.94;4457880;32;33680;-73
2022/03/30 12:32:54;;;;;;;18.83;9.60;;;;;;;16.11;40.17;98462.91;4464547;32;33619;-73
2022/03/30 12:35:41;;;;;;;17.67;9.23;;;;;;;15.76;41.06;98458.50;4472739;32;36726;-73
2022/03/30 12:38:27;;;;;;;17.37;8.93;;;;;;;15.92;40.91;98456.34;4456222;32;34216;-73
2022/03/30 12:41:26;;;;;;;15.75;9.02;;;;;;;16.50;39.26;98451.47;4469027;32;34205;-72
2022/03/30 12:44:19;;;;;;;20.83;10.05;;;;;;;15.77;39.48;98448.25;4481444;32;34618;-73
2022/03/30 12:47:15;;;;;;;15.50;8.90;;;;;;;15.78;39.77;98442.34;4464410;32;34581;-73
2022/03/30 12:50:10;;;;;;;16.52;8.20;;;;;;;16.08;39.76;98436.81;4465244;32;34579;-73
2022/03/30 12:53:03;;;;;;;15.40;8.75;;;;;;;16.14;39.31;98438.06;4471282;32;34221;-74
2022/03/30 12:55:51;;;;;;;21.67;8.75;;;;;;;15.81;39.14;98427.00;4472236;32;34576;-73
2022/03/30 12:58:52;;;;;;;17.52;7.82;;;;;;;15.68;39.68;98424.50;4474654;32;35934;-72
2022/03/30 13:01:39;;;;;;;18.67;8.23;;;;;;;15.57;40.36;98418.00;4461825;32;34637;-72
2022/03/30 13:04:30;;;;;;;13.25;7.07;;;;;;;15.74;40.31;98416.66;4469915;32;34238;-73
2022/03/30 13:07:21;;;;;;;13.23;6.93;;;;;;;15.93;40.86;98422.03;4471845;32;34619;-73
2022/03/30 13:10:11;;;;;;;15.10;7.13;;;;;;;15.67;41.43;98413.78;4464200;32;34526;-73
2022/03/30 13:13:04;;;;;;;15.07;7.45;;;;;;;16.14;40.81;98413.19;4471755;32;36454;-82